sensor_id;sensor_type;location;lat;lon;timestamp;temperature;humidity
74171;DHT22;62526;50.948;6.590;2023-04-15T00:00:06;7.50;99.90
74171;DHT22;62526;50.948;6.590;2023-04-15T00:02:33;7.50;99.90
74171;DHT22;62526;50.948;6.590;2023-04-15T00:04:59;7.50;99.90
74171;DHT22;62526;50.948;6.590;2023-04-15T00:07:26;7.40;99.90
74171;DHT22;62526;50.948;6.590;2023-04-15T00:09:53;7.40;99.90
74171;DHT22;62526;50.948;6.590;2023-04-15T00:12:20;7.40;99.90
74171;DHT22;62526;50.948;6.590;2023-04-15T00:14:47;7.40;99.90
74171;DHT22;62526;50.948;6.590;2023-04-15T00:17:15;7.40;99.90
74171;DHT22;62526;50.948;6.590;2023-04-15T00:19:42;7.40;99.90
74171;DHT22;62526;50.948;6.590;2023-04-15T00:22:12;7.40;99.90
74171;DHT22;62526;50.948;6.590;2023-04-15T00:24:40;7.40;99.90
74171;DHT22;62526;50.948;6.590;2023-04-15T00:27:10;7.40;99.90
74171;DHT22;62526;50.948;6.590;2023-04-15T00:29:37;7.40;99.90
74171;DHT22;62526;50.948;6.590;2023-04-15T00:32:03;7.30;99.90
74171;DHT22;62526;50.948;6.590;2023-04-15T00:34:34;7.30;99.90
74171;DHT22;62526;50.948;6.590;2023-04-15T00:37:01;7.20;99.90
74171;DHT22;62526;50.948;6.590;2023-04-15T00:39:28;7.10;99.90
74171;DHT22;62526;50.948;6.590;2023-04-15T00:41:56;7.00;99.90
74171;DHT22;62526;50.948;6.590;2023-04-15T00:44:24;6.80;99.90
74171;DHT22;62526;50.948;6.590;2023-04-15T00:46:52;6.70;99.90
74171;DHT22;62526;50.948;6.590;2023-04-15T00:49:21;6.70;99.90
74171;DHT22;62526;50.948;6.590;2023-04-15T00:51:48;6.80;99.90
74171;DHT22;62526;50.948;6.590;2023-04-15T00:54:15;6.80;99.90
74171;DHT22;62526;50.948;6.590;2023-04-15T00:56:41;6.80;99.90
74171;DHT22;62526;50.948;6.590;2023-04-15T00:59:08;6.70;99.90
74171;DHT22;62526;50.948;6.590;2023-04-15T01:01:35;6.70;99.90
74171;DHT22;62526;50.948;6.590;2023-04-15T01:04:05;6.60;99.90
74171;DHT22;62526;50.948;6.590;2023-04-15T01:06:31;6.60;99.90
74171;DHT22;62526;50.948;6.590;2023-04-15T01:09:00;6.60;99.90
74171;DHT22;62526;50.948;6.590;2023-04-15T01:11:31;6.60;99.90
74171;DHT22;62526;50.948;6.590;2023-04-15T01:13:57;6.60;99.90
74171;DHT22;62526;50.948;6.590;2023-04-15T01:16:24;6.70;99.90
74171;DHT22;62526;50.948;6.590;2023-04-15T01:18:51;6.70;99.90
74171;DHT22;62526;50.948;6.590;2023-04-15T01:21:19;6.80;99.90
74171;DHT22;62526;50.948;6.590;2023-04-15T01:23:46;6.80;99.90
74171;DHT22;62526;50.948;6.590;2023-04-15T01:26:12;6.80;99.90
74171;DHT22;62526;50.948;6.590;2023-04-15T01:28:39;6.70;99.90
74171;DHT22;62526;50.948;6.590;2023-04-15T01:31:08;6.70;99.90
74171;DHT22;62526;50.948;6.590;2023-04-15T01:33:34;6.60;99.90
74171;DHT22;62526;50.948;6.590;2023-04-15T01:36:01;6.60;99.90
74171;DHT22;62526;50.948;6.590;2023-04-15T01:38:28;6.60;99.90
74171;DHT22;62526;50.948;6.590;2023-04-15T01:40:54;6.50;99.90
74171;DHT22;62526;50.948;6.590;2023-04-15T01:43:22;6.40;99.90
74171;DHT22;62526;50.948;6.590;2023-04-15T01:45:48;6.40;99.90
74171;DHT22;62526;50.948;6.590;2023-04-15T01:48:18;6.40;99.90
74171;DHT22;62526;50.948;6.590;2023-04-15T01:50:45;5.70;99.90
74171;DHT22;62526;50.948;6.590;2023-04-15T01:53:13;6.30;99.90
74171;DHT22;62526;50.948;6.590;2023-04-15T01:55:40;6.30;99.90
74171;DHT22;62526;50.948;6.590;2023-04-15T01:58:09;6.30;99.90
74171;DHT22;62526;50.948;6.590;2023-04-15T02:00:35;6.30;99.90
74171;DHT22;62526;50.948;6.590;2023-04-15T02:03:04;6.30;99.90
74171;DHT22;62526;50.948;6.590;2023-04-15T02:05:30;6.20;99.90
74171;DHT22;62526;50.948;6.590;2023-04-15T02:07:59;6.20;99.90
74171;DHT22;62526;50.948;6.590;2023-04-15T02:10:26;6.20;99.90
74171;DHT22;62526;50.948;6.590;2023-04-15T02:12:53;6.20;99.90
74171;DHT22;62526;50.948;6.590;2023-04-15T02:15:20;6.20;99.90
74171;DHT22;62526;50.948;6.590;2023-04-15T02:17:47;6.20;99.90
74171;DHT22;62526;50.948;6.590;2023-04-15T02:20:13;6.20;99.90
74171;DHT22;62526;50.948;6.590;2023-04-15T02:22:40;6.20;99.90
74171;DHT22;62526;50.948;6.590;2023-04-15T02:25:08;6.20;99.90
74171;DHT22;62526;50.948;6.590;2023-04-15T02:27:36;6.10;99.90
74171;DHT22;62526;50.948;6.590;2023-04-15T02:30:06;6.10;99.90
74171;DHT22;62526;50.948;6.590;2023-04-15T02:32:44;6.10;99.90
74171;DHT22;62526;50.948;6.590;2023-04-15T02:35:12;6.10;99.90
74171;DHT22;62526;50.948;6.590;2023-04-15T02:37:41;6.00;99.90
74171;DHT22;62526;50.948;6.590;2023-04-15T02:40:08;6.00;99.90
74171;DHT22;62526;50.948;6.590;2023-04-15T02:42:38;5.90;99.90
74171;DHT22;62526;50.948;6.590;2023-04-15T02:45:06;5.90;99.90
74171;DHT22;62526;50.948;6.590;2023-04-15T02:47:33;5.80;99.90
74171;DHT22;62526;50.948;6.590;2023-04-15T02:49:59;5.70;99.90
74171;DHT22;62526;50.948;6.590;2023-04-15T02:52:26;5.70;99.90
74171;DHT22;62526;50.948;6.590;2023-04-15T02:54:54;5.60;99.90
74171;DHT22;62526;50.948;6.590;2023-04-15T02:57:32;5.60;99.90
74171;DHT22;62526;50.948;6.590;2023-04-15T02:59:59;5.60;99.90
74171;DHT22;62526;50.948;6.590;2023-04-15T03:02:26;5.60;99.90
74171;DHT22;62526;50.948;6.590;2023-04-15T03:04:53;5.60;99.90
74171;DHT22;62526;50.948;6.590;2023-04-15T03:07:20;5.60;99.90
74171;DHT22;62526;50.948;6.590;2023-04-15T03:09:47;5.60;99.90
74171;DHT22;62526;50.948;6.590;2023-04-15T03:12:14;5.60;99.90
74171;DHT22;62526;50.948;6.590;2023-04-15T03:14:43;5.60;99.90
74171;DHT22;62526;50.948;6.590;2023-04-15T03:17:10;5.60;99.90
74171;DHT22;62526;50.948;6.590;2023-04-15T03:19:37;5.60;99.90
74171;DHT22;62526;50.948;6.590;2023-04-15T03:22:05;5.60;99.90
74171;DHT22;62526;50.948;6.590;2023-04-15T03:24:32;5.60;99.90
74171;DHT22;62526;50.948;6.590;2023-04-15T03:26:59;5.60;99.90
74171;DHT22;62526;50.948;6.590;2023-04-15T03:29:27;5.60;99.90
74171;DHT22;62526;50.948;6.590;2023-04-15T03:31:53;5.60;99.90
74171;DHT22;62526;50.948;6.590;2023-04-15T03:34:23;5.50;99.90
74171;DHT22;62526;50.948;6.590;2023-04-15T03:36:49;5.50;99.90
74171;DHT22;62526;50.948;6.590;2023-04-15T03:39:19;5.50;99.90
74171;DHT22;62526;50.948;6.590;2023-04-15T03:41:49;5.50;99.90
74171;DHT22;62526;50.948;6.590;2023-04-15T03:44:17;5.50;99.90
74171;DHT22;62526;50.948;6.590;2023-04-15T03:46:45;5.50;99.90
74171;DHT22;62526;50.948;6.590;2023-04-15T03:49:15;5.50;99.90
74171;DHT22;62526;50.948;6.590;2023-04-15T03:51:44;5.50;99.90
74171;DHT22;62526;50.948;6.590;2023-04-15T03:54:11;5.40;99.90
74171;DHT22;62526;50.948;6.590;2023-04-15T03:56:38;5.40;99.90
74171;DHT22;62526;50.948;6.590;2023-04-15T03:59:09;5.40;99.90
74171;DHT22;62526;50.948;6.590;2023-04-15T04:01:36;5.30;99.90
74171;DHT22;62526;50.948;6.590;2023-04-15T04:04:05;5.20;99.90
74171;DHT22;62526;50.948;6.590;2023-04-15T04:06:32;5.20;99.90
74171;DHT22;62526;50.948;6.590;2023-04-15T04:08:58;5.10;99.90
74171;DHT22;62526;50.948;6.590;2023-04-15T04:11:25;5.10;99.90
74171;DHT22;62526;50.948;6.590;2023-04-15T04:13:54;5.10;99.90
74171;DHT22;62526;50.948;6.590;2023-04-15T04:16:21;5.10;99.90
74171;DHT22;62526;50.948;6.590;2023-04-15T04:18:48;5.10;99.90
74171;DHT22;62526;50.948;6.590;2023-04-15T04:21:17;5.10;99.90
74171;DHT22;62526;50.948;6.590;2023-04-15T04:23:44;5.00;99.90
74171;DHT22;62526;50.948;6.590;2023-04-15T04:26:11;5.00;99.90
74171;DHT22;62526;50.948;6.590;2023-04-15T04:28:37;5.00;99.90
74171;DHT22;62526;50.948;6.590;2023-04-15T04:31:06;5.00;99.90
74171;DHT22;62526;50.948;6.590;2023-04-15T04:33:33;5.00;99.90
74171;DHT22;62526;50.948;6.590;2023-04-15T04:36:00;5.00;99.90
74171;DHT22;62526;50.948;6.590;2023-04-15T04:38:28;5.00;99.90
74171;DHT22;62526;50.948;6.590;2023-04-15T04:40:57;4.90;99.90
74171;DHT22;62526;50.948;6.590;2023-04-15T04:43:24;5.00;99.90
74171;DHT22;62526;50.948;6.590;2023-04-15T04:45:50;5.00;99.90
74171;DHT22;62526;50.948;6.590;2023-04-15T04:48:17;5.00;99.90
74171;DHT22;62526;50.948;6.590;2023-04-15T04:50:44;5.10;99.90
74171;DHT22;62526;50.948;6.590;2023-04-15T04:53:11;5.00;99.90
74171;DHT22;62526;50.948;6.590;2023-04-15T04:55:37;5.10;99.90
74171;DHT22;62526;50.948;6.590;2023-04-15T04:58:05;5.10;99.90
74171;DHT22;62526;50.948;6.590;2023-04-15T05:00:32;5.00;99.90
74171;DHT22;62526;50.948;6.590;2023-04-15T05:02:58;5.00;99.90
74171;DHT22;62526;50.948;6.590;2023-04-15T05:05:26;4.90;99.90
74171;DHT22;62526;50.948;6.590;2023-04-15T05:07:53;5.00;99.90
74171;DHT22;62526;50.948;6.590;2023-04-15T05:10:21;5.00;99.90
74171;DHT22;62526;50.948;6.590;2023-04-15T05:12:48;5.00;99.90
74171;DHT22;62526;50.948;6.590;2023-04-15T05:15:15;5.00;99.90
74171;DHT22;62526;50.948;6.590;2023-04-15T05:17:42;5.10;99.90
74171;DHT22;62526;50.948;6.590;2023-04-15T05:20:10;5.20;99.90
74171;DHT22;62526;50.948;6.590;2023-04-15T05:22:39;5.20;99.90
74171;DHT22;62526;50.948;6.590;2023-04-15T05:25:08;5.30;99.90
74171;DHT22;62526;50.948;6.590;2023-04-15T05:27:36;5.30;99.90
74171;DHT22;62526;50.948;6.590;2023-04-15T05:30:04;5.40;99.90
74171;DHT22;62526;50.948;6.590;2023-04-15T05:32:46;5.50;99.90
74171;DHT22;62526;50.948;6.590;2023-04-15T05:35:13;5.60;99.90
74171;DHT22;62526;50.948;6.590;2023-04-15T05:37:43;5.70;99.90
74171;DHT22;62526;50.948;6.590;2023-04-15T05:40:11;5.80;99.90
74171;DHT22;62526;50.948;6.590;2023-04-15T05:42:39;5.90;99.90
74171;DHT22;62526;50.948;6.590;2023-04-15T05:45:06;6.00;99.90
74171;DHT22;62526;50.948;6.590;2023-04-15T05:47:35;6.20;99.90
74171;DHT22;62526;50.948;6.590;2023-04-15T05:50:03;6.30;99.90
74171;DHT22;62526;50.948;6.590;2023-04-15T05:52:30;6.40;99.90
74171;DHT22;62526;50.948;6.590;2023-04-15T05:54:57;6.50;99.90
74171;DHT22;62526;50.948;6.590;2023-04-15T05:57:25;6.60;99.90
74171;DHT22;62526;50.948;6.590;2023-04-15T05:59:53;6.70;99.90
74171;DHT22;62526;50.948;6.590;2023-04-15T06:02:20;6.70;99.90
74171;DHT22;62526;50.948;6.590;2023-04-15T06:04:48;6.80;99.90
74171;DHT22;62526;50.948;6.590;2023-04-15T06:07:15;6.90;99.90
74171;DHT22;62526;50.948;6.590;2023-04-15T06:09:41;6.90;99.90
74171;DHT22;62526;50.948;6.590;2023-04-15T06:12:09;6.90;99.90
74171;DHT22;62526;50.948;6.590;2023-04-15T06:14:35;6.90;99.90
74171;DHT22;62526;50.948;6.590;2023-04-15T06:17:02;7.00;99.90
74171;DHT22;62526;50.948;6.590;2023-04-15T06:19:29;7.10;99.90
74171;DHT22;62526;50.948;6.590;2023-04-15T06:21:57;7.10;99.90
74171;DHT22;62526;50.948;6.590;2023-04-15T06:24:27;7.20;99.90
74171;DHT22;62526;50.948;6.590;2023-04-15T06:26:59;7.30;99.90
74171;DHT22;62526;50.948;6.590;2023-04-15T06:29:26;7.30;99.90
74171;DHT22;62526;50.948;6.590;2023-04-15T06:31:56;7.50;99.90
74171;DHT22;62526;50.948;6.590;2023-04-15T06:34:24;7.50;99.90
74171;DHT22;62526;50.948;6.590;2023-04-15T06:36:50;7.70;99.90
74171;DHT22;62526;50.948;6.590;2023-04-15T06:39:17;7.80;99.90
74171;DHT22;62526;50.948;6.590;2023-04-15T06:41:44;7.80;99.90
74171;DHT22;62526;50.948;6.590;2023-04-15T06:44:11;7.90;99.90
74171;DHT22;62526;50.948;6.590;2023-04-15T06:46:37;7.90;99.90
74171;DHT22;62526;50.948;6.590;2023-04-15T06:49:05;8.00;99.90
74171;DHT22;62526;50.948;6.590;2023-04-15T06:51:34;8.00;99.90
74171;DHT22;62526;50.948;6.590;2023-04-15T06:54:01;8.00;99.90
74171;DHT22;62526;50.948;6.590;2023-04-15T06:56:30;8.10;99.90
74171;DHT22;62526;50.948;6.590;2023-04-15T06:58:57;8.20;99.90
74171;DHT22;62526;50.948;6.590;2023-04-15T07:01:26;8.20;99.90
74171;DHT22;62526;50.948;6.590;2023-04-15T07:03:54;8.20;99.90
74171;DHT22;62526;50.948;6.590;2023-04-15T07:06:23;8.30;99.90
74171;DHT22;62526;50.948;6.590;2023-04-15T07:08:51;8.30;99.90
74171;DHT22;62526;50.948;6.590;2023-04-15T07:11:19;8.40;99.90
74171;DHT22;62526;50.948;6.590;2023-04-15T07:13:45;8.60;99.90
74171;DHT22;62526;50.948;6.590;2023-04-15T07:16:14;8.70;99.90
74171;DHT22;62526;50.948;6.590;2023-04-15T07:18:41;8.90;99.90
74171;DHT22;62526;50.948;6.590;2023-04-15T07:21:07;9.10;99.90
74171;DHT22;62526;50.948;6.590;2023-04-15T07:23:34;9.30;99.90
74171;DHT22;62526;50.948;6.590;2023-04-15T07:26:01;9.40;99.90
74171;DHT22;62526;50.948;6.590;2023-04-15T07:28:27;9.60;99.90
74171;DHT22;62526;50.948;6.590;2023-04-15T07:30:55;9.70;99.90
74171;DHT22;62526;50.948;6.590;2023-04-15T07:33:27;9.90;99.90
74171;DHT22;62526;50.948;6.590;2023-04-15T07:35:54;10.00;99.90
74171;DHT22;62526;50.948;6.590;2023-04-15T07:38:23;10.10;99.90
74171;DHT22;62526;50.948;6.590;2023-04-15T07:40:49;10.20;99.90
74171;DHT22;62526;50.948;6.590;2023-04-15T07:43:17;10.30;99.90
74171;DHT22;62526;50.948;6.590;2023-04-15T07:45:44;10.40;99.90
74171;DHT22;62526;50.948;6.590;2023-04-15T07:48:13;10.50;99.90
74171;DHT22;62526;50.948;6.590;2023-04-15T07:50:40;10.60;99.90
74171;DHT22;62526;50.948;6.590;2023-04-15T07:53:06;10.70;99.90
74171;DHT22;62526;50.948;6.590;2023-04-15T07:55:34;10.80;99.90
74171;DHT22;62526;50.948;6.590;2023-04-15T07:58:08;10.90;99.90
74171;DHT22;62526;50.948;6.590;2023-04-15T08:00:34;11.00;99.90
74171;DHT22;62526;50.948;6.590;2023-04-15T08:03:01;11.20;99.90
74171;DHT22;62526;50.948;6.590;2023-04-15T08:05:30;11.40;99.90
74171;DHT22;62526;50.948;6.590;2023-04-15T08:07:57;11.50;99.90
74171;DHT22;62526;50.948;6.590;2023-04-15T08:10:25;11.70;99.90
74171;DHT22;62526;50.948;6.590;2023-04-15T08:12:53;11.70;99.90
74171;DHT22;62526;50.948;6.590;2023-04-15T08:15:19;11.80;99.90
74171;DHT22;62526;50.948;6.590;2023-04-15T08:17:47;11.90;99.90
74171;DHT22;62526;50.948;6.590;2023-04-15T08:20:15;12.00;99.90
74171;DHT22;62526;50.948;6.590;2023-04-15T08:22:44;12.20;99.90
74171;DHT22;62526;50.948;6.590;2023-04-15T08:25:11;12.40;99.90
74171;DHT22;62526;50.948;6.590;2023-04-15T08:27:38;12.40;99.90
74171;DHT22;62526;50.948;6.590;2023-04-15T08:30:05;12.50;99.90
74171;DHT22;62526;50.948;6.590;2023-04-15T08:32:44;12.60;99.90
74171;DHT22;62526;50.948;6.590;2023-04-15T08:35:08;12.60;99.90
74171;DHT22;62526;50.948;6.590;2023-04-15T08:37:35;12.70;99.90
74171;DHT22;62526;50.948;6.590;2023-04-15T08:40:02;12.90;99.90
74171;DHT22;62526;50.948;6.590;2023-04-15T08:42:30;13.10;99.90
74171;DHT22;62526;50.948;6.590;2023-04-15T08:44:58;13.20;99.90
74171;DHT22;62526;50.948;6.590;2023-04-15T08:47:25;13.10;99.90
74171;DHT22;62526;50.948;6.590;2023-04-15T08:49:51;13.20;99.90
74171;DHT22;62526;50.948;6.590;2023-04-15T08:52:18;13.30;99.90
74171;DHT22;62526;50.948;6.590;2023-04-15T08:54:45;13.40;99.90
74171;DHT22;62526;50.948;6.590;2023-04-15T08:57:13;13.30;99.90
74171;DHT22;62526;50.948;6.590;2023-04-15T08:59:43;13.30;99.90
74171;DHT22;62526;50.948;6.590;2023-04-15T09:02:14;13.30;99.90
74171;DHT22;62526;50.948;6.590;2023-04-15T09:04:42;13.40;99.90
74171;DHT22;62526;50.948;6.590;2023-04-15T09:07:09;13.40;99.90
74171;DHT22;62526;50.948;6.590;2023-04-15T09:09:37;13.50;99.90
74171;DHT22;62526;50.948;6.590;2023-04-15T09:12:05;13.40;99.90
74171;DHT22;62526;50.948;6.590;2023-04-15T09:14:33;13.50;99.90
74171;DHT22;62526;50.948;6.590;2023-04-15T09:17:03;13.50;99.90
74171;DHT22;62526;50.948;6.590;2023-04-15T09:19:30;13.60;99.90
74171;DHT22;62526;50.948;6.590;2023-04-15T09:21:57;13.60;99.90
74171;DHT22;62526;50.948;6.590;2023-04-15T09:24:24;13.50;99.90
74171;DHT22;62526;50.948;6.590;2023-04-15T09:26:51;13.60;99.90
74171;DHT22;62526;50.948;6.590;2023-04-15T09:29:17;13.70;99.90
74171;DHT22;62526;50.948;6.590;2023-04-15T09:31:46;13.90;99.90
74171;DHT22;62526;50.948;6.590;2023-04-15T09:34:13;14.00;99.90
74171;DHT22;62526;50.948;6.590;2023-04-15T09:36:55;14.10;99.90
74171;DHT22;62526;50.948;6.590;2023-04-15T09:39:24;14.10;99.90
74171;DHT22;62526;50.948;6.590;2023-04-15T09:44:30;14.00;99.90
74171;DHT22;62526;50.948;6.590;2023-04-15T09:46:57;14.10;99.90
74171;DHT22;62526;50.948;6.590;2023-04-15T09:49:24;14.20;99.90
74171;DHT22;62526;50.948;6.590;2023-04-15T09:51:56;14.20;99.90
74171;DHT22;62526;50.948;6.590;2023-04-15T09:54:20;14.40;99.90
74171;DHT22;62526;50.948;6.590;2023-04-15T09:56:47;14.60;99.90
74171;DHT22;62526;50.948;6.590;2023-04-15T09:59:15;14.80;99.90
74171;DHT22;62526;50.948;6.590;2023-04-15T10:01:42;15.00;99.90
74171;DHT22;62526;50.948;6.590;2023-04-15T10:04:09;15.10;99.90
74171;DHT22;62526;50.948;6.590;2023-04-15T10:06:37;15.10;99.90
74171;DHT22;62526;50.948;6.590;2023-04-15T10:09:04;15.10;99.90
74171;DHT22;62526;50.948;6.590;2023-04-15T10:11:31;15.20;99.90
74171;DHT22;62526;50.948;6.590;2023-04-15T10:13:58;15.30;99.90
74171;DHT22;62526;50.948;6.590;2023-04-15T10:16:26;15.30;99.90
74171;DHT22;62526;50.948;6.590;2023-04-15T10:18:54;15.30;99.90
74171;DHT22;62526;50.948;6.590;2023-04-15T10:21:21;15.40;99.90
74171;DHT22;62526;50.948;6.590;2023-04-15T10:23:49;15.50;99.90
74171;DHT22;62526;50.948;6.590;2023-04-15T10:26:14;15.60;99.90
74171;DHT22;62526;50.948;6.590;2023-04-15T10:28:43;15.60;99.90
74171;DHT22;62526;50.948;6.590;2023-04-15T10:31:11;15.60;99.90
74171;DHT22;62526;50.948;6.590;2023-04-15T10:33:38;15.70;99.90
74171;DHT22;62526;50.948;6.590;2023-04-15T10:36:06;15.80;99.90
74171;DHT22;62526;50.948;6.590;2023-04-15T10:38:37;16.00;99.90
74171;DHT22;62526;50.948;6.590;2023-04-15T10:41:22;16.20;99.90
74171;DHT22;62526;50.948;6.590;2023-04-15T10:43:54;16.40;99.90
74171;DHT22;62526;50.948;6.590;2023-04-15T10:46:33;16.50;99.90
74171;DHT22;62526;50.948;6.590;2023-04-15T10:48:54;16.60;99.90
74171;DHT22;62526;50.948;6.590;2023-04-15T10:51:26;16.60;99.90
74171;DHT22;62526;50.948;6.590;2023-04-15T10:53:56;16.60;99.90
74171;DHT22;62526;50.948;6.590;2023-04-15T10:56:22;16.60;99.90
74171;DHT22;62526;50.948;6.590;2023-04-15T10:58:49;16.50;99.90
74171;DHT22;62526;50.948;6.590;2023-04-15T11:01:18;16.40;99.90
74171;DHT22;62526;50.948;6.590;2023-04-15T11:03:43;16.30;99.90
74171;DHT22;62526;50.948;6.590;2023-04-15T11:06:10;16.20;99.90
74171;DHT22;62526;50.948;6.590;2023-04-15T11:11:16;15.90;99.90
74171;DHT22;62526;50.948;6.590;2023-04-15T11:13:48;15.70;99.90
74171;DHT22;62526;50.948;6.590;2023-04-15T11:16:15;15.70;99.90
74171;DHT22;62526;50.948;6.590;2023-04-15T11:18:42;15.70;99.90
74171;DHT22;62526;50.948;6.590;2023-04-15T11:21:08;15.80;99.90
74171;DHT22;62526;50.948;6.590;2023-04-15T11:23:38;15.80;99.90
74171;DHT22;62526;50.948;6.590;2023-04-15T11:26:05;15.90;99.90
74171;DHT22;62526;50.948;6.590;2023-04-15T11:28:32;16.20;99.90
74171;DHT22;62526;50.948;6.590;2023-04-15T11:31:04;16.50;99.90
74171;DHT22;62526;50.948;6.590;2023-04-15T11:33:25;16.70;99.90
74171;DHT22;62526;50.948;6.590;2023-04-15T11:35:52;16.90;99.90
74171;DHT22;62526;50.948;6.590;2023-04-15T11:38:20;16.90;99.90
74171;DHT22;62526;50.948;6.590;2023-04-15T11:40:49;17.10;99.90
74171;DHT22;62526;50.948;6.590;2023-04-15T11:43:17;17.00;99.90
74171;DHT22;62526;50.948;6.590;2023-04-15T11:48:33;16.60;99.90
74171;DHT22;62526;50.948;6.590;2023-04-15T11:51:01;16.30;99.90
74171;DHT22;62526;50.948;6.590;2023-04-15T11:53:49;16.20;99.90
74171;DHT22;62526;50.948;6.590;2023-04-15T11:56:18;16.20;99.90
74171;DHT22;62526;50.948;6.590;2023-04-15T11:58:44;16.00;99.90
74171;DHT22;62526;50.948;6.590;2023-04-15T12:01:11;16.10;99.90
74171;DHT22;62526;50.948;6.590;2023-04-15T12:03:42;16.20;99.90
74171;DHT22;62526;50.948;6.590;2023-04-15T12:06:16;16.50;99.90
74171;DHT22;62526;50.948;6.590;2023-04-15T12:09:10;16.60;99.90
74171;DHT22;62526;50.948;6.590;2023-04-15T12:11:36;16.50;99.90
74171;DHT22;62526;50.948;6.590;2023-04-15T12:14:09;16.70;99.90
74171;DHT22;62526;50.948;6.590;2023-04-15T12:16:35;16.60;99.90
74171;DHT22;62526;50.948;6.590;2023-04-15T12:19:03;16.50;99.90
74171;DHT22;62526;50.948;6.590;2023-04-15T12:21:33;16.60;99.90
74171;DHT22;62526;50.948;6.590;2023-04-15T12:24:02;16.50;99.90
74171;DHT22;62526;50.948;6.590;2023-04-15T12:26:33;16.40;99.90
74171;DHT22;62526;50.948;6.590;2023-04-15T12:29:03;16.30;99.90
74171;DHT22;62526;50.948;6.590;2023-04-15T12:31:34;16.20;99.90
74171;DHT22;62526;50.948;6.590;2023-04-15T12:34:02;16.30;99.90
74171;DHT22;62526;50.948;6.590;2023-04-15T12:36:29;16.50;99.90
74171;DHT22;62526;50.948;6.590;2023-04-15T12:38:55;16.50;99.90
74171;DHT22;62526;50.948;6.590;2023-04-15T12:41:25;16.40;99.90
74171;DHT22;62526;50.948;6.590;2023-04-15T12:43:52;16.00;99.90
74171;DHT22;62526;50.948;6.590;2023-04-15T12:46:19;15.80;99.90
74171;DHT22;62526;50.948;6.590;2023-04-15T12:48:46;15.70;99.90
74171;DHT22;62526;50.948;6.590;2023-04-15T12:51:13;15.90;99.90
74171;DHT22;62526;50.948;6.590;2023-04-15T12:53:40;15.90;99.90
74171;DHT22;62526;50.948;6.590;2023-04-15T12:56:07;15.80;99.90
74171;DHT22;62526;50.948;6.590;2023-04-15T12:58:36;15.70;99.90
74171;DHT22;62526;50.948;6.590;2023-04-15T13:01:03;15.50;99.90
74171;DHT22;62526;50.948;6.590;2023-04-15T13:03:29;15.10;99.90
74171;DHT22;62526;50.948;6.590;2023-04-15T13:05:56;14.80;99.90
74171;DHT22;62526;50.948;6.590;2023-04-15T13:08:23;14.60;99.90
74171;DHT22;62526;50.948;6.590;2023-04-15T13:10:49;14.50;99.90
74171;DHT22;62526;50.948;6.590;2023-04-15T13:13:16;14.50;99.90
74171;DHT22;62526;50.948;6.590;2023-04-15T13:15:43;14.40;99.90
74171;DHT22;62526;50.948;6.590;2023-04-15T13:18:09;14.50;99.90
74171;DHT22;62526;50.948;6.590;2023-04-15T13:20:38;14.50;99.90
74171;DHT22;62526;50.948;6.590;2023-04-15T13:23:09;14.40;99.90
74171;DHT22;62526;50.948;6.590;2023-04-15T13:25:35;14.10;99.90
74171;DHT22;62526;50.948;6.590;2023-04-15T13:28:02;14.10;99.90
74171;DHT22;62526;50.948;6.590;2023-04-15T13:30:28;14.00;99.90
74171;DHT22;62526;50.948;6.590;2023-04-15T13:32:56;14.10;99.90
74171;DHT22;62526;50.948;6.590;2023-04-15T13:35:23;14.20;99.90
74171;DHT22;62526;50.948;6.590;2023-04-15T13:37:49;14.40;99.90
74171;DHT22;62526;50.948;6.590;2023-04-15T13:40:18;14.40;99.90
74171;DHT22;62526;50.948;6.590;2023-04-15T13:42:44;14.60;99.90
74171;DHT22;62526;50.948;6.590;2023-04-15T13:45:10;14.60;99.90
74171;DHT22;62526;50.948;6.590;2023-04-15T13:47:39;14.50;99.90
74171;DHT22;62526;50.948;6.590;2023-04-15T13:50:05;14.50;99.90
74171;DHT22;62526;50.948;6.590;2023-04-15T13:52:32;14.50;99.90
74171;DHT22;62526;50.948;6.590;2023-04-15T13:54:59;14.50;99.90
74171;DHT22;62526;50.948;6.590;2023-04-15T13:57:26;14.50;99.90
74171;DHT22;62526;50.948;6.590;2023-04-15T13:59:53;14.40;99.90
74171;DHT22;62526;50.948;6.590;2023-04-15T14:02:20;14.30;99.90
74171;DHT22;62526;50.948;6.590;2023-04-15T14:04:49;14.30;99.90
74171;DHT22;62526;50.948;6.590;2023-04-15T14:07:16;14.30;99.90
74171;DHT22;62526;50.948;6.590;2023-04-15T14:09:44;14.40;99.90
74171;DHT22;62526;50.948;6.590;2023-04-15T14:12:10;14.40;99.90
74171;DHT22;62526;50.948;6.590;2023-04-15T14:14:37;14.30;99.90
74171;DHT22;62526;50.948;6.590;2023-04-15T14:17:04;13.20;99.90
74171;DHT22;62526;50.948;6.590;2023-04-15T14:19:33;14.10;99.90
74171;DHT22;62526;50.948;6.590;2023-04-15T14:21:59;14.10;99.90
74171;DHT22;62526;50.948;6.590;2023-04-15T14:24:27;14.10;99.90
74171;DHT22;62526;50.948;6.590;2023-04-15T14:26:53;14.10;99.90
74171;DHT22;62526;50.948;6.590;2023-04-15T14:29:23;14.00;99.90
74171;DHT22;62526;50.948;6.590;2023-04-15T14:31:49;14.00;99.90
74171;DHT22;62526;50.948;6.590;2023-04-15T14:34:20;14.10;99.90
74171;DHT22;62526;50.948;6.590;2023-04-15T14:36:46;14.30;99.90
74171;DHT22;62526;50.948;6.590;2023-04-15T14:39:13;14.30;99.90
74171;DHT22;62526;50.948;6.590;2023-04-15T14:41:40;14.20;99.90
74171;DHT22;62526;50.948;6.590;2023-04-15T14:44:06;14.10;99.90
74171;DHT22;62526;50.948;6.590;2023-04-15T14:46:33;14.00;99.90
74171;DHT22;62526;50.948;6.590;2023-04-15T14:49:01;14.00;99.90
74171;DHT22;62526;50.948;6.590;2023-04-15T14:51:28;14.10;99.90
74171;DHT22;62526;50.948;6.590;2023-04-15T14:53:56;14.10;99.90
74171;DHT22;62526;50.948;6.590;2023-04-15T14:56:23;14.10;99.90
74171;DHT22;62526;50.948;6.590;2023-04-15T14:58:50;14.10;99.90
74171;DHT22;62526;50.948;6.590;2023-04-15T15:01:17;13.90;99.90
74171;DHT22;62526;50.948;6.590;2023-04-15T15:03:43;13.70;99.90
74171;DHT22;62526;50.948;6.590;2023-04-15T15:06:11;13.70;99.90
74171;DHT22;62526;50.948;6.590;2023-04-15T15:08:38;13.60;99.90
74171;DHT22;62526;50.948;6.590;2023-04-15T15:11:07;13.60;99.90
74171;DHT22;62526;50.948;6.590;2023-04-15T15:13:33;13.40;99.90
74171;DHT22;62526;50.948;6.590;2023-04-15T15:16:03;13.50;99.90
74171;DHT22;62526;50.948;6.590;2023-04-15T15:18:30;13.50;99.90
74171;DHT22;62526;50.948;6.590;2023-04-15T15:20:57;13.60;99.90
74171;DHT22;62526;50.948;6.590;2023-04-15T15:23:25;13.70;99.90
74171;DHT22;62526;50.948;6.590;2023-04-15T15:25:57;13.80;99.90
74171;DHT22;62526;50.948;6.590;2023-04-15T15:28:23;13.70;99.90
74171;DHT22;62526;50.948;6.590;2023-04-15T15:30:51;13.70;99.90
74171;DHT22;62526;50.948;6.590;2023-04-15T15:33:20;13.70;99.90
74171;DHT22;62526;50.948;6.590;2023-04-15T15:35:49;13.60;99.90
74171;DHT22;62526;50.948;6.590;2023-04-15T15:38:18;13.60;99.90
74171;DHT22;62526;50.948;6.590;2023-04-15T15:40:46;13.60;99.90
74171;DHT22;62526;50.948;6.590;2023-04-15T15:43:13;13.70;99.90
74171;DHT22;62526;50.948;6.590;2023-04-15T15:45:41;13.80;99.90
74171;DHT22;62526;50.948;6.590;2023-04-15T15:48:08;14.00;99.90